sensor_id;sensor_type;location;lat;lon;timestamp;P1;durP1;ratioP1;P2;durP2;ratioP2
35679;SDS011;21803;53.586;10.040;2023-02-15T00:01:54;1.42;;;1.30;;
35679;SDS011;21803;53.586;10.040;2023-02-15T00:04:20;1.35;;;1.25;;
35679;SDS011;21803;53.586;10.040;2023-02-15T00:06:48;1.52;;;1.20;;
35679;SDS011;21803;53.586;10.040;2023-02-15T00:09:14;1.45;;;1.23;;
35679;SDS011;21803;53.586;10.040;2023-02-15T00:11:39;1.10;;;1.00;;
35679;SDS011;21803;53.586;10.040;2023-02-15T00:14:06;1.55;;;1.27;;
35679;SDS011;21803;53.586;10.040;2023-02-15T00:16:38;1.42;;;1.30;;
35679;SDS011;21803;53.586;10.040;2023-02-15T00:19:05;1.52;;;1.30;;
35679;SDS011;21803;53.586;10.040;2023-02-15T00:21:31;1.58;;;1.20;;
35679;SDS011;21803;53.586;10.040;2023-02-15T00:23:57;1.98;;;1.35;;
35679;SDS011;21803;53.586;10.040;2023-02-15T00:26:24;1.63;;;1.23;;
35679;SDS011;21803;53.586;10.040;2023-02-15T00:28:51;1.75;;;1.30;;
35679;SDS011;21803;53.586;10.040;2023-02-15T00:31:17;1.27;;;1.17;;
35679;SDS011;21803;53.586;10.040;2023-02-15T00:33:42;1.30;;;1.15;;
35679;SDS011;21803;53.586;10.040;2023-02-15T00:36:08;1.70;;;1.40;;
35679;SDS011;21803;53.586;10.040;2023-02-15T00:38:35;1.50;;;1.33;;
35679;SDS011;21803;53.586;10.040;2023-02-15T00:41:02;2.10;;;1.40;;
35679;SDS011;21803;53.586;10.040;2023-02-15T00:43:29;1.70;;;1.40;;
35679;SDS011;21803;53.586;10.040;2023-02-15T00:45:56;1.65;;;1.48;;
35679;SDS011;21803;53.586;10.040;2023-02-15T00:48:23;1.52;;;1.35;;
35679;SDS011;21803;53.586;10.040;2023-02-15T00:50:49;1.90;;;1.33;;
35679;SDS011;21803;53.586;10.040;2023-02-15T00:53:15;1.50;;;1.40;;
35679;SDS011;21803;53.586;10.040;2023-02-15T00:55:41;1.45;;;1.30;;
35679;SDS011;21803;53.586;10.040;2023-02-15T00:58:07;1.60;;;1.30;;
35679;SDS011;21803;53.586;10.040;2023-02-15T01:00:34;1.98;;;1.30;;
35679;SDS011;21803;53.586;10.040;2023-02-15T01:02:59;1.40;;;1.30;;
35679;SDS011;21803;53.586;10.040;2023-02-15T01:05:25;1.50;;;1.10;;
35679;SDS011;21803;53.586;10.040;2023-02-15T01:07:50;1.48;;;1.20;;
35679;SDS011;21803;53.586;10.040;2023-02-15T01:10:16;1.60;;;1.30;;
35679;SDS011;21803;53.586;10.040;2023-02-15T01:12:42;1.40;;;1.20;;
35679;SDS011;21803;53.586;10.040;2023-02-15T01:15:08;1.58;;;1.48;;
35679;SDS011;21803;53.586;10.040;2023-02-15T01:17:34;1.55;;;1.45;;
35679;SDS011;21803;53.586;10.040;2023-02-15T01:19:59;1.50;;;1.40;;
35679;SDS011;21803;53.586;10.040;2023-02-15T01:22:25;1.85;;;1.52;;
35679;SDS011;21803;53.586;10.040;2023-02-15T01:24:51;2.67;;;1.65;;
35679;SDS011;21803;53.586;10.040;2023-02-15T01:27:16;1.70;;;1.48;;
35679;SDS011;21803;53.586;10.040;2023-02-15T01:29:42;2.45;;;1.25;;
35679;SDS011;21803;53.586;10.040;2023-02-15T01:32:08;1.73;;;1.48;;
35679;SDS011;21803;53.586;10.040;2023-02-15T01:34:34;1.67;;;1.35;;
35679;SDS011;21803;53.586;10.040;2023-02-15T01:36:59;1.50;;;1.33;;
35679;SDS011;21803;53.586;10.040;2023-02-15T01:39:25;1.77;;;1.45;;
35679;SDS011;21803;53.586;10.040;2023-02-15T01:41:51;2.13;;;1.50;;
35679;SDS011;21803;53.586;10.040;2023-02-15T01:47:07;1.50;;;1.40;;
35679;SDS011;21803;53.586;10.040;2023-02-15T01:49:36;1.48;;;1.30;;
35679;SDS011;21803;53.586;10.040;2023-02-15T01:52:05;1.88;;;1.45;;
35679;SDS011;21803;53.586;10.040;2023-02-15T01:54:33;1.45;;;1.27;;
35679;SDS011;21803;53.586;10.040;2023-02-15T01:57:02;2.22;;;1.50;;
35679;SDS011;21803;53.586;10.040;2023-02-15T01:59:35;1.83;;;1.40;;
35679;SDS011;21803;53.586;10.040;2023-02-15T02:02:04;2.17;;;1.30;;
35679;SDS011;21803;53.586;10.040;2023-02-15T02:04:35;1.70;;;1.42;;
35679;SDS011;21803;53.586;10.040;2023-02-15T02:07:06;1.67;;;1.38;;
35679;SDS011;21803;53.586;10.040;2023-02-15T02:09:33;2.20;;;1.58;;
35679;SDS011;21803;53.586;10.040;2023-02-15T02:12:00;1.48;;;1.30;;
35679;SDS011;21803;53.586;10.040;2023-02-15T02:14:26;1.70;;;1.42;;
35679;SDS011;21803;53.586;10.040;2023-02-15T02:19:44;1.88;;;1.50;;
35679;SDS011;21803;53.586;10.040;2023-02-15T02:25:34;1.50;;;1.20;;
35679;SDS011;21803;53.586;10.040;2023-02-15T02:28:12;1.65;;;1.50;;
35679;SDS011;21803;53.586;10.040;2023-02-15T02:34:46;1.80;;;1.50;;
35679;SDS011;21803;53.586;10.040;2023-02-15T02:39:49;1.63;;;1.38;;
35679;SDS011;21803;53.586;10.040;2023-02-15T02:42:29;2.13;;;1.48;;
35679;SDS011;21803;53.586;10.040;2023-02-15T02:45:20;1.80;;;1.50;;
35679;SDS011;21803;53.586;10.040;2023-02-15T02:47:47;1.83;;;1.67;;
35679;SDS011;21803;53.586;10.040;2023-02-15T02:50:25;1.75;;;1.45;;
35679;SDS011;21803;53.586;10.040;2023-02-15T02:52:54;1.83;;;1.58;;
35679;SDS011;21803;53.586;10.040;2023-02-15T02:55:26;1.92;;;1.40;;
35679;SDS011;21803;53.586;10.040;2023-02-15T03:01:10;1.70;;;1.50;;
35679;SDS011;21803;53.586;10.040;2023-02-15T03:03:52;2.42;;;1.67;;
35679;SDS011;21803;53.586;10.040;2023-02-15T03:06:25;3.15;;;1.50;;
35679;SDS011;21803;53.586;10.040;2023-02-15T03:09:07;1.77;;;1.40;;
35679;SDS011;21803;53.586;10.040;2023-02-15T03:11:46;2.03;;;1.67;;
35679;SDS011;21803;53.586;10.040;2023-02-15T03:14:13;2.30;;;1.48;;
35679;SDS011;21803;53.586;10.040;2023-02-15T03:16:42;1.80;;;1.60;;
35679;SDS011;21803;53.586;10.040;2023-02-15T03:19:12;1.58;;;1.38;;
35679;SDS011;21803;53.586;10.040;2023-02-15T03:21:44;2.58;;;1.70;;
35679;SDS011;21803;53.586;10.040;2023-02-15T03:24:23;1.70;;;1.52;;
35679;SDS011;21803;53.586;10.040;2023-02-15T03:26:51;1.77;;;1.60;;
35679;SDS011;21803;53.586;10.040;2023-02-15T03:29:19;1.67;;;1.48;;
35679;SDS011;21803;53.586;10.040;2023-02-15T03:31:47;2.08;;;1.58;;
35679;SDS011;21803;53.586;10.040;2023-02-15T03:34:16;1.90;;;1.38;;
35679;SDS011;21803;53.586;10.040;2023-02-15T03:36:46;1.65;;;1.48;;
35679;SDS011;21803;53.586;10.040;2023-02-15T03:39:22;1.83;;;1.60;;
35679;SDS011;21803;53.586;10.040;2023-02-15T03:42:16;1.92;;;1.50;;
35679;SDS011;21803;53.586;10.040;2023-02-15T03:47:23;1.65;;;1.35;;
35679;SDS011;21803;53.586;10.040;2023-02-15T03:50:00;1.80;;;1.50;;
35679;SDS011;21803;53.586;10.040;2023-02-15T03:52:50;2.42;;;1.70;;
35679;SDS011;21803;53.586;10.040;2023-02-15T03:55:16;2.13;;;1.65;;
35679;SDS011;21803;53.586;10.040;2023-02-15T03:57:41;1.83;;;1.65;;
35679;SDS011;21803;53.586;10.040;2023-02-15T04:00:26;2.03;;;1.50;;
35679;SDS011;21803;53.586;10.040;2023-02-15T04:03:12;1.52;;;1.30;;
35679;SDS011;21803;53.586;10.040;2023-02-15T04:06:03;1.75;;;1.60;;
35679;SDS011;21803;53.586;10.040;2023-02-15T04:08:29;1.95;;;1.67;;
35679;SDS011;21803;53.586;10.040;2023-02-15T04:11:13;1.80;;;1.50;;
35679;SDS011;21803;53.586;10.040;2023-02-15T04:13:39;1.88;;;1.50;;
35679;SDS011;21803;53.586;10.040;2023-02-15T04:16:04;2.40;;;1.80;;
35679;SDS011;21803;53.586;10.040;2023-02-15T04:18:31;1.95;;;1.67;;
35679;SDS011;21803;53.586;10.040;2023-02-15T04:21:20;1.60;;;1.50;;
35679;SDS011;21803;53.586;10.040;2023-02-15T04:24:05;2.25;;;1.70;;
35679;SDS011;21803;53.586;10.040;2023-02-15T04:26:50;1.52;;;1.40;;
35679;SDS011;21803;53.586;10.040;2023-02-15T04:29:19;2.22;;;1.48;;
35679;SDS011;21803;53.586;10.040;2023-02-15T04:31:46;2.05;;;1.55;;
35679;SDS011;21803;53.586;10.040;2023-02-15T04:34:11;2.47;;;1.70;;
35679;SDS011;21803;53.586;10.040;2023-02-15T04:36:38;1.83;;;1.60;;
35679;SDS011;21803;53.586;10.040;2023-02-15T04:39:04;1.52;;;1.40;;
35679;SDS011;21803;53.586;10.040;2023-02-15T04:41:30;2.28;;;1.60;;
35679;SDS011;21803;53.586;10.040;2023-02-15T04:43:55;1.52;;;1.40;;
35679;SDS011;21803;53.586;10.040;2023-02-15T04:46:22;1.85;;;1.50;;
35679;SDS011;21803;53.586;10.040;2023-02-15T04:48:47;1.60;;;1.50;;
35679;SDS011;21803;53.586;10.040;2023-02-15T04:51:13;1.92;;;1.70;;
35679;SDS011;21803;53.586;10.040;2023-02-15T04:53:38;1.83;;;1.63;;
35679;SDS011;21803;53.586;10.040;2023-02-15T04:56:04;2.13;;;1.67;;
35679;SDS011;21803;53.586;10.040;2023-02-15T04:58:29;2.35;;;1.70;;
35679;SDS011;21803;53.586;10.040;2023-02-15T05:00:55;2.03;;;1.73;;
35679;SDS011;21803;53.586;10.040;2023-02-15T05:03:21;2.42;;;1.83;;
35679;SDS011;21803;53.586;10.040;2023-02-15T05:05:47;2.35;;;1.60;;
35679;SDS011;21803;53.586;10.040;2023-02-15T05:08:13;1.92;;;1.60;;
35679;SDS011;21803;53.586;10.040;2023-02-15T05:10:38;2.33;;;1.67;;
35679;SDS011;21803;53.586;10.040;2023-02-15T05:13:04;1.88;;;1.65;;
35679;SDS011;21803;53.586;10.040;2023-02-15T05:15:29;1.42;;;1.25;;
35679;SDS011;21803;53.586;10.040;2023-02-15T05:17:55;1.95;;;1.67;;
35679;SDS011;21803;53.586;10.040;2023-02-15T05:20:20;2.65;;;2.05;;
35679;SDS011;21803;53.586;10.040;2023-02-15T05:22:46;1.77;;;1.55;;
35679;SDS011;21803;53.586;10.040;2023-02-15T05:25:11;1.67;;;1.58;;
35679;SDS011;21803;53.586;10.040;2023-02-15T05:27:56;2.60;;;1.90;;
35679;SDS011;21803;53.586;10.040;2023-02-15T05:30:58;1.85;;;1.65;;
35679;SDS011;21803;53.586;10.040;2023-02-15T05:33:25;2.25;;;1.95;;
35679;SDS011;21803;53.586;10.040;2023-02-15T05:35:51;1.90;;;1.50;;
35679;SDS011;21803;53.586;10.040;2023-02-15T05:38:16;1.60;;;1.38;;
35679;SDS011;21803;53.586;10.040;2023-02-15T05:40:42;2.35;;;1.60;;
35679;SDS011;21803;53.586;10.040;2023-02-15T05:43:07;2.85;;;1.77;;
35679;SDS011;21803;53.586;10.040;2023-02-15T05:45:33;1.88;;;1.50;;
35679;SDS011;21803;53.586;10.040;2023-02-15T05:47:58;1.73;;;1.50;;
35679;SDS011;21803;53.586;10.040;2023-02-15T05:50:24;2.10;;;1.38;;
35679;SDS011;21803;53.586;10.040;2023-02-15T05:52:51;1.50;;;1.30;;
35679;SDS011;21803;53.586;10.040;2023-02-15T05:55:17;2.30;;;1.70;;
35679;SDS011;21803;53.586;10.040;2023-02-15T05:57:43;1.92;;;1.70;;
35679;SDS011;21803;53.586;10.040;2023-02-15T06:00:08;1.83;;;1.58;;
35679;SDS011;21803;53.586;10.040;2023-02-15T06:02:35;1.98;;;1.50;;
35679;SDS011;21803;53.586;10.040;2023-02-15T06:05:01;2.67;;;1.90;;
35679;SDS011;21803;53.586;10.040;2023-02-15T06:07:28;1.73;;;1.60;;
35679;SDS011;21803;53.586;10.040;2023-02-15T06:09:53;1.75;;;1.58;;
35679;SDS011;21803;53.586;10.040;2023-02-15T06:12:19;1.50;;;1.40;;
35679;SDS011;21803;53.586;10.040;2023-02-15T06:14:44;2.03;;;1.60;;
35679;SDS011;21803;53.586;10.040;2023-02-15T06:17:10;2.20;;;1.63;;
35679;SDS011;21803;53.586;10.040;2023-02-15T06:19:36;1.70;;;1.50;;
35679;SDS011;21803;53.586;10.040;2023-02-15T06:22:02;2.85;;;1.70;;
35679;SDS011;21803;53.586;10.040;2023-02-15T06:24:28;2.15;;;1.63;;
35679;SDS011;21803;53.586;10.040;2023-02-15T06:26:53;2.00;;;1.60;;
35679;SDS011;21803;53.586;10.040;2023-02-15T06:29:19;1.75;;;1.58;;
35679;SDS011;21803;53.586;10.040;2023-02-15T06:31:44;1.67;;;1.52;;
35679;SDS011;21803;53.586;10.040;2023-02-15T06:34:10;1.70;;;1.50;;
35679;SDS011;21803;53.586;10.040;2023-02-15T06:36:35;2.03;;;1.60;;
35679;SDS011;21803;53.586;10.040;2023-02-15T06:39:01;1.98;;;1.52;;
35679;SDS011;21803;53.586;10.040;2023-02-15T06:41:28;2.63;;;1.85;;
35679;SDS011;21803;53.586;10.040;2023-02-15T06:43:53;2.10;;;1.70;;
35679;SDS011;21803;53.586;10.040;2023-02-15T06:46:19;1.95;;;1.50;;
35679;SDS011;21803;53.586;10.040;2023-02-15T06:48:44;2.63;;;1.73;;
35679;SDS011;21803;53.586;10.040;2023-02-15T06:51:10;1.90;;;1.70;;
35679;SDS011;21803;53.586;10.040;2023-02-15T06:53:35;2.75;;;1.70;;
35679;SDS011;21803;53.586;10.040;2023-02-15T06:56:01;2.22;;;1.85;;
35679;SDS011;21803;53.586;10.040;2023-02-15T06:58:31;1.88;;;1.50;;
35679;SDS011;21803;53.586;10.040;2023-02-15T07:01:03;1.92;;;1.73;;
35679;SDS011;21803;53.586;10.040;2023-02-15T07:03:29;2.47;;;1.70;;
35679;SDS011;21803;53.586;10.040;2023-02-15T07:05:59;1.95;;;1.67;;
35679;SDS011;21803;53.586;10.040;2023-02-15T07:08:26;2.40;;;2.00;;
35679;SDS011;21803;53.586;10.040;2023-02-15T07:10:52;2.33;;;1.73;;
35679;SDS011;21803;53.586;10.040;2023-02-15T07:13:19;2.47;;;1.80;;
35679;SDS011;21803;53.586;10.040;2023-02-15T07:15:45;2.05;;;1.58;;
35679;SDS011;21803;53.586;10.040;2023-02-15T07:18:12;2.05;;;1.80;;
35679;SDS011;21803;53.586;10.040;2023-02-15T07:20:37;1.48;;;1.38;;
35679;SDS011;21803;53.586;10.040;2023-02-15T07:23:04;2.15;;;1.77;;
35679;SDS011;21803;53.586;10.040;2023-02-15T07:25:30;2.17;;;1.60;;
35679;SDS011;21803;53.586;10.040;2023-02-15T07:27:59;2.72;;;1.80;;
35679;SDS011;21803;53.586;10.040;2023-02-15T07:30:26;2.38;;;1.83;;
35679;SDS011;21803;53.586;10.040;2023-02-15T07:32:59;2.03;;;1.70;;
35679;SDS011;21803;53.586;10.040;2023-02-15T07:35:50;2.40;;;1.70;;
35679;SDS011;21803;53.586;10.040;2023-02-15T07:38:17;2.35;;;1.80;;
35679;SDS011;21803;53.586;10.040;2023-02-15T07:40:44;3.25;;;1.50;;
35679;SDS011;21803;53.586;10.040;2023-02-15T07:43:10;1.73;;;1.45;;
35679;SDS011;21803;53.586;10.040;2023-02-15T07:45:36;2.45;;;1.85;;
35679;SDS011;21803;53.586;10.040;2023-02-15T07:48:02;1.88;;;1.50;;
35679;SDS011;21803;53.586;10.040;2023-02-15T07:50:29;2.20;;;1.70;;
35679;SDS011;21803;53.586;10.040;2023-02-15T07:52:55;1.95;;;1.63;;
35679;SDS011;21803;53.586;10.040;2023-02-15T07:55:20;2.20;;;1.63;;
35679;SDS011;21803;53.586;10.040;2023-02-15T07:57:46;2.58;;;1.50;;
35679;SDS011;21803;53.586;10.040;2023-02-15T08:00:15;2.33;;;1.50;;
35679;SDS011;21803;53.586;10.040;2023-02-15T08:02:42;2.00;;;1.60;;
35679;SDS011;21803;53.586;10.040;2023-02-15T08:05:12;2.03;;;1.50;;
35679;SDS011;21803;53.586;10.040;2023-02-15T08:07:38;1.92;;;1.45;;
35679;SDS011;21803;53.586;10.040;2023-02-15T08:10:03;1.92;;;1.58;;
35679;SDS011;21803;53.586;10.040;2023-02-15T08:12:29;1.83;;;1.60;;
35679;SDS011;21803;53.586;10.040;2023-02-15T08:14:55;3.90;;;1.90;;
35679;SDS011;21803;53.586;10.040;2023-02-15T08:17:20;2.38;;;1.67;;
35679;SDS011;21803;53.586;10.040;2023-02-15T08:19:46;2.45;;;1.70;;
35679;SDS011;21803;53.586;10.040;2023-02-15T08:22:12;1.55;;;1.42;;
35679;SDS011;21803;53.586;10.040;2023-02-15T08:24:39;2.63;;;1.90;;
35679;SDS011;21803;53.586;10.040;2023-02-15T08:27:06;2.17;;;1.55;;
35679;SDS011;21803;53.586;10.040;2023-02-15T08:29:33;1.85;;;1.52;;
35679;SDS011;21803;53.586;10.040;2023-02-15T08:32:04;2.35;;;1.52;;
35679;SDS011;21803;53.586;10.040;2023-02-15T08:34:32;2.55;;;1.67;;
35679;SDS011;21803;53.586;10.040;2023-02-15T08:36:59;1.95;;;1.60;;
35679;SDS011;21803;53.586;10.040;2023-02-15T08:39:25;2.33;;;1.67;;
35679;SDS011;21803;53.586;10.040;2023-02-15T08:41:51;3.08;;;1.75;;
35679;SDS011;21803;53.586;10.040;2023-02-15T08:44:17;2.25;;;1.80;;
35679;SDS011;21803;53.586;10.040;2023-02-15T08:46:44;2.60;;;1.73;;
35679;SDS011;21803;53.586;10.040;2023-02-15T08:49:12;2.05;;;1.80;;
35679;SDS011;21803;53.586;10.040;2023-02-15T08:51:40;2.17;;;1.70;;
35679;SDS011;21803;53.586;10.040;2023-02-15T08:54:07;3.05;;;2.00;;
35679;SDS011;21803;53.586;10.040;2023-02-15T08:56:36;2.80;;;1.65;;
35679;SDS011;21803;53.586;10.040;2023-02-15T08:59:04;2.33;;;1.67;;
35679;SDS011;21803;53.586;10.040;2023-02-15T09:01:32;2.90;;;1.70;;
35679;SDS011;21803;53.586;10.040;2023-02-15T09:04:00;2.40;;;1.58;;
35679;SDS011;21803;53.586;10.040;2023-02-15T09:06:27;2.97;;;1.70;;
35679;SDS011;21803;53.586;10.040;2023-02-15T09:08:53;2.35;;;1.80;;
35679;SDS011;21803;53.586;10.040;2023-02-15T09:11:23;2.55;;;1.70;;
35679;SDS011;21803;53.586;10.040;2023-02-15T09:13:54;2.10;;;1.75;;
35679;SDS011;21803;53.586;10.040;2023-02-15T09:16:22;1.80;;;1.50;;
35679;SDS011;21803;53.586;10.040;2023-02-15T09:18:49;2.53;;;1.88;;
35679;SDS011;21803;53.586;10.040;2023-02-15T09:21:15;2.10;;;1.63;;
35679;SDS011;21803;53.586;10.040;2023-02-15T09:23:47;2.67;;;1.80;;
35679;SDS011;21803;53.586;10.040;2023-02-15T09:26:15;2.72;;;1.90;;
35679;SDS011;21803;53.586;10.040;2023-02-15T09:28:42;1.80;;;1.58;;
35679;SDS011;21803;53.586;10.040;2023-02-15T09:31:27;2.55;;;2.00;;
35679;SDS011;21803;53.586;10.040;2023-02-15T09:33:54;2.30;;;1.92;;
35679;SDS011;21803;53.586;10.040;2023-02-15T09:36:30;2.30;;;1.70;;
35679;SDS011;21803;53.586;10.040;2023-02-15T09:50:06;1.70;;;1.60;;
35679;SDS011;21803;53.586;10.040;2023-02-15T10:01:26;2.30;;;1.88;;
35679;SDS011;21803;53.586;10.040;2023-02-15T10:07:18;2.35;;;1.63;;
35679;SDS011;21803;53.586;10.040;2023-02-15T10:10:11;1.90;;;1.70;;
35679;SDS011;21803;53.586;10.040;2023-02-15T10:13:36;2.45;;;1.85;;
35679;SDS011;21803;53.586;10.040;2023-02-15T10:27:15;1.98;;;1.70;;
35679;SDS011;21803;53.586;10.040;2023-02-15T10:32:44;2.38;;;1.80;;
35679;SDS011;21803;53.586;10.040;2023-02-15T10:43:35;2.60;;;1.80;;
35679;SDS011;21803;53.586;10.040;2023-02-15T10:48:57;2.25;;;1.73;;
35679;SDS011;21803;53.586;10.040;2023-02-15T10:54:30;2.70;;;1.85;;
35679;SDS011;21803;53.586;10.040;2023-02-15T11:08:07;2.50;;;1.80;;
35679;SDS011;21803;53.586;10.040;2023-02-15T11:13:14;2.15;;;1.60;;
35679;SDS011;21803;53.586;10.040;2023-02-15T11:15:50;2.40;;;1.88;;
35679;SDS011;21803;53.586;10.040;2023-02-15T11:23:40;2.10;;;1.50;;
35679;SDS011;21803;53.586;10.040;2023-02-15T11:26:29;2.40;;;1.70;;
35679;SDS011;21803;53.586;10.040;2023-02-15T11:29:01;2.30;;;1.60;;
35679;SDS011;21803;53.586;10.040;2023-02-15T11:31:42;2.65;;;1.70;;
35679;SDS011;21803;53.586;10.040;2023-02-15T11:34:19;2.42;;;1.65;;
35679;SDS011;21803;53.586;10.040;2023-02-15T11:36:51;1.92;;;1.70;;
35679;SDS011;21803;53.586;10.040;2023-02-15T11:39:19;2.30;;;1.60;;
35679;SDS011;21803;53.586;10.040;2023-02-15T11:41:50;1.65;;;1.50;;
35679;SDS011;21803;53.586;10.040;2023-02-15T11:44:21;2.22;;;1.65;;
35679;SDS011;21803;53.586;10.040;2023-02-15T11:46:57;2.50;;;1.80;;
35679;SDS011;21803;53.586;10.040;2023-02-15T11:49:26;2.35;;;1.65;;
35679;SDS011;21803;53.586;10.040;2023-02-15T11:51:57;2.20;;;1.80;;
35679;SDS011;21803;53.586;10.040;2023-02-15T11:54:31;2.75;;;1.73;;
35679;SDS011;21803;53.586;10.040;2023-02-15T11:57:05;2.40;;;1.80;;
35679;SDS011;21803;53.586;10.040;2023-02-15T11:59:44;2.10;;;1.75;;
35679;SDS011;21803;53.586;10.040;2023-02-15T12:02:19;2.42;;;1.60;;
35679;SDS011;21803;53.586;10.040;2023-02-15T12:04:51;2.20;;;1.83;;
35679;SDS011;21803;53.586;10.040;2023-02-15T12:10:33;2.33;;;1.63;;
35679;SDS011;21803;53.586;10.040;2023-02-15T12:13:11;1.88;;;1.67;;
35679;SDS011;21803;53.586;10.040;2023-02-15T12:15:42;2.60;;;1.80;;
35679;SDS011;21803;53.586;10.040;2023-02-15T12:18:33;2.60;;;1.88;;
35679;SDS011;21803;53.586;10.040;2023-02-15T12:21:14;2.13;;;1.88;;
35679;SDS011;21803;53.586;10.040;2023-02-15T12:23:50;2.17;;;1.60;;
35679;SDS011;21803;53.586;10.040;2023-02-15T12:26:28;2.65;;;1.80;;
35679;SDS011;21803;53.586;10.040;2023-02-15T12:29:00;2.58;;;1.73;;
35679;SDS011;21803;53.586;10.040;2023-02-15T12:31:41;2.60;;;1.67;;
35679;SDS011;21803;53.586;10.040;2023-02-15T12:34:21;3.10;;;1.88;;
35679;SDS011;21803;53.586;10.040;2023-02-15T12:36:51;2.28;;;1.58;;
35679;SDS011;21803;53.586;10.040;2023-02-15T12:39:24;2.33;;;1.80;;
35679;SDS011;21803;53.586;10.040;2023-02-15T12:44:31;2.20;;;1.70;;
35679;SDS011;21803;53.586;10.040;2023-02-15T12:47:03;2.38;;;1.50;;
35679;SDS011;21803;53.586;10.040;2023-02-15T12:49:39;2.05;;;1.70;;
35679;SDS011;21803;53.586;10.040;2023-02-15T12:52:06;2.35;;;1.80;;
35679;SDS011;21803;53.586;10.040;2023-02-15T12:54:45;3.53;;;1.73;;
35679;SDS011;21803;53.586;10.040;2023-02-15T12:57:27;2.40;;;1.80;;
35679;SDS011;21803;53.586;10.040;2023-02-15T12:59:56;2.60;;;1.75;;
35679;SDS011;21803;53.586;10.040;2023-02-15T13:02:29;3.10;;;2.05;;
35679;SDS011;21803;53.586;10.040;2023-02-15T13:05:10;2.65;;;2.10;;
35679;SDS011;21803;53.586;10.040;2023-02-15T13:07:44;2.75;;;1.83;;
35679;SDS011;21803;53.586;10.040;2023-02-15T13:10:28;2.67;;;2.00;;
35679;SDS011;21803;53.586;10.040;2023-02-15T13:12:56;2.05;;;1.73;;
35679;SDS011;21803;53.586;10.040;2023-02-15T13:15:34;3.38;;;1.85;;
35679;SDS011;21803;53.586;10.040;2023-02-15T13:18:02;2.55;;;2.10;;
35679;SDS011;21803;53.586;10.040;2023-02-15T13:20:30;2.50;;;2.00;;
35679;SDS011;21803;53.586;10.040;2023-02-15T13:23:01;2.20;;;1.83;;
35679;SDS011;21803;53.586;10.040;2023-02-15T13:25:32;2.30;;;1.63;;
35679;SDS011;21803;53.586;10.040;2023-02-15T13:28:05;2.22;;;1.95;;
35679;SDS011;21803;53.586;10.040;2023-02-15T13:30:32;2.75;;;1.90;;
35679;SDS011;21803;53.586;10.040;2023-02-15T13:33:05;2.25;;;1.70;;
35679;SDS011;21803;53.586;10.040;2023-02-15T13:35:40;2.88;;;2.05;;
35679;SDS011;21803;53.586;10.040;2023-02-15T13:41:06;1.98;;;1.70;;
35679;SDS011;21803;53.586;10.040;2023-02-15T13:49:46;2.05;;;1.80;;
35679;SDS011;21803;53.586;10.040;2023-02-15T13:52:30;2.28;;;1.83;;
35679;SDS011;21803;53.586;10.040;2023-02-15T14:00:26;2.90;;;2.08;;
35679;SDS011;21803;53.586;10.040;2023-02-15T14:14:26;2.78;;;1.88;;
35679;SDS011;21803;53.586;10.040;2023-02-15T14:19:54;2.67;;;1.80;;
35679;SDS011;21803;53.586;10.040;2023-02-15T14:22:36;3.17;;;1.83;;
35679;SDS011;21803;53.586;10.040;2023-02-15T14:25:18;2.30;;;2.00;;
35679;SDS011;21803;53.586;10.040;2023-02-15T14:30:48;2.85;;;2.00;;
35679;SDS011;21803;53.586;10.040;2023-02-15T14:33:31;2.90;;;1.98;;
35679;SDS011;21803;53.586;10.040;2023-02-15T14:36:06;3.10;;;2.08;;
35679;SDS011;21803;53.586;10.040;2023-02-15T14:44:36;2.80;;;2.10;;
35679;SDS011;21803;53.586;10.040;2023-02-15T14:47:14;2.95;;;1.92;;
35679;SDS011;21803;53.586;10.040;2023-02-15T14:49:43;2.60;;;2.05;;
35679;SDS011;21803;53.586;10.040;2023-02-15T14:52:09;2.47;;;2.00;;
35679;SDS011;21803;53.586;10.040;2023-02-15T14:59:36;2.92;;;2.03;;
35679;SDS011;21803;53.586;10.040;2023-02-15T15:04:43;3.20;;;2.20;;
35679;SDS011;21803;53.586;10.040;2023-02-15T15:07:23;3.45;;;2.00;;
35679;SDS011;21803;53.586;10.040;2023-02-15T15:10:23;2.25;;;1.92;;
35679;SDS011;21803;53.586;10.040;2023-02-15T15:12:59;2.13;;;1.90;;
35679;SDS011;21803;53.586;10.040;2023-02-15T15:19:01;2.10;;;1.80;;
35679;SDS011;21803;53.586;10.040;2023-02-15T15:21:51;3.03;;;2.05;;
35679;SDS011;21803;53.586;10.040;2023-02-15T15:30:49;2.67;;;1.70;;
35679;SDS011;21803;53.586;10.040;2023-02-15T15:32:53;4.85;;;2.20;;
35679;SDS011;21803;53.586;10.040;2023-02-15T15:46:56;1.90;;;1.70;;
35679;SDS011;21803;53.586;10.040;2023-02-15T15:49:46;3.40;;;2.10;;
35679;SDS011;21803;53.586;10.040;2023-02-15T15:54:46;2.75;;;2.00;;
35679;SDS011;21803;53.586;10.040;2023-02-15T15:59:48;2.50;;;2.05;;
35679;SDS011;21803;53.586;10.040;2023-02-15T16:02:15;3.95;;;2.25;;
35679;SDS011;21803;53.586;10.040;2023-02-15T16:04:42;2.67;;;2.05;;
35679;SDS011;21803;53.586;10.040;2023-02-15T16:12:20;2.53;;;1.80;;
35679;SDS011;21803;53.586;10.040;2023-02-15T16:14:46;2.45;;;1.90;;
35679;SDS011;21803;53.586;10.040;2023-02-15T16:17:20;2.40;;;2.00;;
35679;SDS011;21803;53.586;10.040;2023-02-15T16:19:51;2.45;;;1.90;;
35679;SDS011;21803;53.586;10.040;2023-02-15T16:22:21;2.35;;;1.90;;
35679;SDS011;21803;53.586;10.040;2023-02-15T16:25:07;2.45;;;1.85;;
35679;SDS011;21803;53.586;10.040;2023-02-15T16:28:05;2.38;;;1.75;;
35679;SDS011;21803;53.586;10.040;2023-02-15T16:30:33;2.50;;;1.90;;
35679;SDS011;21803;53.586;10.040;2023-02-15T16:33:07;2.63;;;2.03;;
35679;SDS011;21803;53.586;10.040;2023-02-15T16:35:36;2.40;;;1.70;;
35679;SDS011;21803;53.586;10.040;2023-02-15T16:38:06;2.35;;;1.80;;
35679;SDS011;21803;53.586;10.040;2023-02-15T16:43:04;2.40;;;1.90;;
35679;SDS011;21803;53.586;10.040;2023-02-15T16:45:35;2.80;;;2.10;;
35679;SDS011;21803;53.586;10.040;2023-02-15T16:48:05;2.17;;;1.98;;
35679;SDS011;21803;53.586;10.040;2023-02-15T16:50:37;3.47;;;2.15;;
35679;SDS011;21803;53.586;10.040;2023-02-15T16:53:04;2.55;;;1.90;;
35679;SDS011;21803;53.586;10.040;2023-02-15T16:55:39;2.72;;;2.00;;
35679;SDS011;21803;53.586;10.040;2023-02-15T16:58:06;3.80;;;2.00;;
35679;SDS011;21803;53.586;10.040;2023-02-15T17:00:38;2.38;;;1.88;;
35679;SDS011;21803;53.586;10.040;2023-02-15T17:05:42;4.47;;;2.20;;
35679;SDS011;21803;53.586;10.040;2023-02-15T17:08:18;2.38;;;1.88;;
35679;SDS011;21803;53.586;10.040;2023-02-15T17:11:11;2.10;;;1.90;;
35679;SDS011;21803;53.586;10.040;2023-02-15T17:16:46;2.13;;;1.80;;
35679;SDS011;21803;53.586;10.040;2023-02-15T17:21:56;2.17;;;1.80;;
35679;SDS011;21803;53.586;10.040;2023-02-15T17:24:37;2.75;;;1.95;;
35679;SDS011;21803;53.586;10.040;2023-02-15T17:27:07;2.13;;;1.50;;
35679;SDS011;21803;53.586;10.040;2023-02-15T17:29:40;2.15;;;1.70;;
35679;SDS011;21803;53.586;10.040;2023-02-15T17:32:20;2.97;;;1.85;;
35679;SDS011;21803;53.586;10.040;2023-02-15T17:34:49;2.30;;;1.70;;
35679;SDS011;21803;53.586;10.040;2023-02-15T17:40:02;3.00;;;1.98;;
35679;SDS011;21803;53.586;10.040;2023-02-15T17:42:48;1.92;;;1.60;;
35679;SDS011;21803;53.586;10.040;2023-02-15T17:45:14;2.33;;;1.52;;
35679;SDS011;21803;53.586;10.040;2023-02-15T17:47:46;3.65;;;2.00;;
35679;SDS011;21803;53.586;10.040;2023-02-15T17:50:18;2.30;;;1.90;;
35679;SDS011;21803;53.586;10.040;2023-02-15T17:52:46;2.25;;;1.52;;
35679;SDS011;21803;53.586;10.040;2023-02-15T17:55:13;2.58;;;2.00;;
35679;SDS011;21803;53.586;10.040;2023-02-15T17:57:59;2.58;;;1.90;;
35679;SDS011;21803;53.586;10.040;2023-02-15T18:00:25;2.30;;;1.90;;
35679;SDS011;21803;53.586;10.040;2023-02-15T18:03:09;2.92;;;1.98;;